sensor_id;sensor_type;location;lat;lon;timestamp;P1;durP1;ratioP1;P2;durP2;ratioP2
73599;SDS011;61877;48.246;9.220;2023-08-01T00:00:39;9.32;;;2.92;;
73599;SDS011;61877;48.246;9.220;2023-08-01T00:03:04;7.50;;;2.93;;
73599;SDS011;61877;48.246;9.220;2023-08-01T00:05:31;9.57;;;3.40;;
73599;SDS011;61877;48.246;9.220;2023-08-01T00:07:57;7.20;;;2.93;;
73599;SDS011;61877;48.246;9.220;2023-08-01T00:10:22;9.40;;;3.17;;
73599;SDS011;61877;48.246;9.220;2023-08-01T00:12:48;11.87;;;3.30;;
73599;SDS011;61877;48.246;9.220;2023-08-01T00:15:13;8.00;;;3.00;;
73599;SDS011;61877;48.246;9.220;2023-08-01T00:17:38;8.07;;;3.43;;
73599;SDS011;61877;48.246;9.220;2023-08-01T00:20:04;7.90;;;3.27;;
73599;SDS011;61877;48.246;9.220;2023-08-01T00:22:32;7.18;;;3.00;;
73599;SDS011;61877;48.246;9.220;2023-08-01T00:24:57;7.90;;;3.10;;
73599;SDS011;61877;48.246;9.220;2023-08-01T00:27:23;9.23;;;2.90;;
73599;SDS011;61877;48.246;9.220;2023-08-01T00:29:48;9.90;;;3.00;;
73599;SDS011;61877;48.246;9.220;2023-08-01T00:32:14;12.52;;;3.08;;
73599;SDS011;61877;48.246;9.220;2023-08-01T00:34:39;8.20;;;2.80;;
73599;SDS011;61877;48.246;9.220;2023-08-01T00:37:04;10.03;;;3.10;;
73599;SDS011;61877;48.246;9.220;2023-08-01T00:39:31;11.13;;;3.20;;
73599;SDS011;61877;48.246;9.220;2023-08-01T00:41:57;9.05;;;2.90;;
73599;SDS011;61877;48.246;9.220;2023-08-01T00:44:22;7.63;;;3.10;;
73599;SDS011;61877;48.246;9.220;2023-08-01T00:46:48;9.07;;;3.25;;
73599;SDS011;61877;48.246;9.220;2023-08-01T00:49:14;8.60;;;2.90;;
73599;SDS011;61877;48.246;9.220;2023-08-01T00:51:40;8.43;;;2.90;;
73599;SDS011;61877;48.246;9.220;2023-08-01T00:54:06;9.70;;;2.90;;
73599;SDS011;61877;48.246;9.220;2023-08-01T00:56:33;8.30;;;3.37;;
73599;SDS011;61877;48.246;9.220;2023-08-01T00:58:58;8.35;;;3.25;;
73599;SDS011;61877;48.246;9.220;2023-08-01T01:01:24;7.77;;;3.07;;
73599;SDS011;61877;48.246;9.220;2023-08-01T01:03:49;7.50;;;3.20;;
73599;SDS011;61877;48.246;9.220;2023-08-01T01:06:16;8.63;;;2.80;;
73599;SDS011;61877;48.246;9.220;2023-08-01T01:08:45;9.57;;;3.20;;
73599;SDS011;61877;48.246;9.220;2023-08-01T01:11:10;7.57;;;2.80;;
73599;SDS011;61877;48.246;9.220;2023-08-01T01:13:37;8.88;;;3.08;;
73599;SDS011;61877;48.246;9.220;2023-08-01T01:16:03;7.50;;;2.97;;
73599;SDS011;61877;48.246;9.220;2023-08-01T01:18:28;8.38;;;3.00;;
73599;SDS011;61877;48.246;9.220;2023-08-01T01:20:57;7.70;;;2.67;;
73599;SDS011;61877;48.246;9.220;2023-08-01T01:23:22;8.05;;;3.10;;
73599;SDS011;61877;48.246;9.220;2023-08-01T01:25:50;7.43;;;2.70;;
73599;SDS011;61877;48.246;9.220;2023-08-01T01:28:16;7.30;;;2.83;;
73599;SDS011;61877;48.246;9.220;2023-08-01T01:30:43;6.93;;;2.77;;
73599;SDS011;61877;48.246;9.220;2023-08-01T01:33:09;8.80;;;2.70;;
73599;SDS011;61877;48.246;9.220;2023-08-01T01:35:35;9.38;;;2.70;;
73599;SDS011;61877;48.246;9.220;2023-08-01T01:38:02;9.47;;;3.07;;
73599;SDS011;61877;48.246;9.220;2023-08-01T01:40:28;8.40;;;3.10;;
73599;SDS011;61877;48.246;9.220;2023-08-01T01:42:53;8.93;;;3.27;;
73599;SDS011;61877;48.246;9.220;2023-08-01T01:45:18;8.07;;;3.00;;
73599;SDS011;61877;48.246;9.220;2023-08-01T01:47:44;8.45;;;2.90;;
73599;SDS011;61877;48.246;9.220;2023-08-01T01:50:09;7.63;;;3.10;;
73599;SDS011;61877;48.246;9.220;2023-08-01T01:52:35;8.13;;;3.20;;
73599;SDS011;61877;48.246;9.220;2023-08-01T01:55:01;8.93;;;3.53;;
73599;SDS011;61877;48.246;9.220;2023-08-01T01:57:27;8.63;;;3.20;;
73599;SDS011;61877;48.246;9.220;2023-08-01T01:59:52;7.97;;;2.90;;
73599;SDS011;61877;48.246;9.220;2023-08-01T02:02:18;9.87;;;3.27;;
73599;SDS011;61877;48.246;9.220;2023-08-01T02:04:45;10.90;;;3.20;;
73599;SDS011;61877;48.246;9.220;2023-08-01T02:07:12;8.32;;;3.15;;
73599;SDS011;61877;48.246;9.220;2023-08-01T02:09:37;8.00;;;3.23;;
73599;SDS011;61877;48.246;9.220;2023-08-01T02:12:04;9.63;;;3.40;;
73599;SDS011;61877;48.246;9.220;2023-08-01T02:14:30;7.50;;;3.17;;
73599;SDS011;61877;48.246;9.220;2023-08-01T02:16:55;8.87;;;3.37;;
73599;SDS011;61877;48.246;9.220;2023-08-01T02:19:21;8.53;;;3.17;;
73599;SDS011;61877;48.246;9.220;2023-08-01T02:21:46;9.25;;;3.22;;
73599;SDS011;61877;48.246;9.220;2023-08-01T02:24:12;7.70;;;3.27;;
73599;SDS011;61877;48.246;9.220;2023-08-01T02:26:37;8.57;;;3.20;;
73599;SDS011;61877;48.246;9.220;2023-08-01T02:29:04;9.20;;;3.30;;
73599;SDS011;61877;48.246;9.220;2023-08-01T02:31:29;9.60;;;3.22;;
73599;SDS011;61877;48.246;9.220;2023-08-01T02:33:55;8.20;;;3.27;;
73599;SDS011;61877;48.246;9.220;2023-08-01T02:36:20;9.23;;;3.10;;
73599;SDS011;61877;48.246;9.220;2023-08-01T02:38:48;7.93;;;3.17;;
73599;SDS011;61877;48.246;9.220;2023-08-01T02:41:14;8.73;;;3.10;;
73599;SDS011;61877;48.246;9.220;2023-08-01T02:43:39;8.70;;;3.30;;
73599;SDS011;61877;48.246;9.220;2023-08-01T02:46:06;10.67;;;3.17;;
73599;SDS011;61877;48.246;9.220;2023-08-01T02:48:32;11.07;;;3.50;;
73599;SDS011;61877;48.246;9.220;2023-08-01T02:50:57;8.63;;;3.47;;
73599;SDS011;61877;48.246;9.220;2023-08-01T02:53:22;9.33;;;3.40;;
73599;SDS011;61877;48.246;9.220;2023-08-01T02:55:48;8.07;;;3.10;;
73599;SDS011;61877;48.246;9.220;2023-08-01T02:58:13;8.45;;;3.25;;
73599;SDS011;61877;48.246;9.220;2023-08-01T03:00:39;9.10;;;3.70;;
73599;SDS011;61877;48.246;9.220;2023-08-01T03:03:05;7.83;;;3.40;;
73599;SDS011;61877;48.246;9.220;2023-08-01T03:05:31;8.35;;;3.42;;
73599;SDS011;61877;48.246;9.220;2023-08-01T03:07:56;9.20;;;3.67;;
73599;SDS011;61877;48.246;9.220;2023-08-01T03:10:22;8.57;;;3.30;;
73599;SDS011;61877;48.246;9.220;2023-08-01T03:12:47;8.77;;;3.43;;
73599;SDS011;61877;48.246;9.220;2023-08-01T03:15:13;8.67;;;3.37;;
73599;SDS011;61877;48.246;9.220;2023-08-01T03:17:38;8.17;;;3.20;;
73599;SDS011;61877;48.246;9.220;2023-08-01T03:20:06;8.13;;;3.30;;
73599;SDS011;61877;48.246;9.220;2023-08-01T03:22:32;9.70;;;3.70;;
73599;SDS011;61877;48.246;9.220;2023-08-01T03:24:57;8.83;;;3.53;;
73599;SDS011;61877;48.246;9.220;2023-08-01T03:27:23;8.20;;;3.28;;
73599;SDS011;61877;48.246;9.220;2023-08-01T03:29:48;8.17;;;3.53;;
73599;SDS011;61877;48.246;9.220;2023-08-01T03:32:14;8.30;;;3.40;;
73599;SDS011;61877;48.246;9.220;2023-08-01T03:34:39;10.13;;;3.70;;
73599;SDS011;61877;48.246;9.220;2023-08-01T03:37:06;8.00;;;2.90;;
73599;SDS011;61877;48.246;9.220;2023-08-01T03:39:32;8.68;;;3.25;;
73599;SDS011;61877;48.246;9.220;2023-08-01T03:41:57;9.17;;;3.63;;
73599;SDS011;61877;48.246;9.220;2023-08-01T03:44:22;8.93;;;3.60;;
73599;SDS011;61877;48.246;9.220;2023-08-01T03:46:48;8.57;;;3.17;;
73599;SDS011;61877;48.246;9.220;2023-08-01T03:49:13;8.50;;;3.25;;
73599;SDS011;61877;48.246;9.220;2023-08-01T03:51:39;8.40;;;3.37;;
73599;SDS011;61877;48.246;9.220;2023-08-01T03:54:05;7.77;;;2.93;;
73599;SDS011;61877;48.246;9.220;2023-08-01T03:56:31;8.85;;;3.28;;
73599;SDS011;61877;48.246;9.220;2023-08-01T03:58:56;8.63;;;2.83;;
73599;SDS011;61877;48.246;9.220;2023-08-01T04:01:22;8.30;;;3.50;;
73599;SDS011;61877;48.246;9.220;2023-08-01T04:03:47;9.10;;;3.13;;
73599;SDS011;61877;48.246;9.220;2023-08-01T04:06:12;7.47;;;2.70;;
73599;SDS011;61877;48.246;9.220;2023-08-01T04:08:38;9.27;;;3.20;;
73599;SDS011;61877;48.246;9.220;2023-08-01T04:11:05;7.97;;;2.90;;
73599;SDS011;61877;48.246;9.220;2023-08-01T04:13:30;9.02;;;3.10;;
73599;SDS011;61877;48.246;9.220;2023-08-01T04:15:55;7.73;;;2.77;;
73599;SDS011;61877;48.246;9.220;2023-08-01T04:18:21;8.60;;;2.97;;
73599;SDS011;61877;48.246;9.220;2023-08-01T04:20:46;8.57;;;2.70;;
73599;SDS011;61877;48.246;9.220;2023-08-01T04:23:12;8.70;;;3.00;;
73599;SDS011;61877;48.246;9.220;2023-08-01T04:25:39;8.57;;;3.00;;
73599;SDS011;61877;48.246;9.220;2023-08-01T04:28:06;9.68;;;3.30;;
73599;SDS011;61877;48.246;9.220;2023-08-01T04:30:32;7.70;;;2.95;;
73599;SDS011;61877;48.246;9.220;2023-08-01T04:32:57;9.17;;;3.00;;
73599;SDS011;61877;48.246;9.220;2023-08-01T04:35:23;8.30;;;3.40;;
73599;SDS011;61877;48.246;9.220;2023-08-01T04:37:48;9.15;;;3.65;;
73599;SDS011;61877;48.246;9.220;2023-08-01T04:40:13;8.83;;;3.30;;
73599;SDS011;61877;48.246;9.220;2023-08-01T04:42:39;8.83;;;3.40;;
73599;SDS011;61877;48.246;9.220;2023-08-01T04:45:06;8.00;;;3.17;;
73599;SDS011;61877;48.246;9.220;2023-08-01T04:47:32;8.90;;;3.30;;
73599;SDS011;61877;48.246;9.220;2023-08-01T04:49:58;9.00;;;3.37;;
73599;SDS011;61877;48.246;9.220;2023-08-01T04:52:23;9.90;;;3.50;;
73599;SDS011;61877;48.246;9.220;2023-08-01T04:54:49;8.75;;;3.10;;
73599;SDS011;61877;48.246;9.220;2023-08-01T04:57:14;9.13;;;3.27;;
73599;SDS011;61877;48.246;9.220;2023-08-01T04:59:39;8.73;;;3.27;;
73599;SDS011;61877;48.246;9.220;2023-08-01T05:02:06;8.47;;;3.40;;
73599;SDS011;61877;48.246;9.220;2023-08-01T05:04:31;8.18;;;3.50;;
73599;SDS011;61877;48.246;9.220;2023-08-01T05:06:57;8.77;;;3.47;;
73599;SDS011;61877;48.246;9.220;2023-08-01T05:09:22;8.60;;;3.23;;
73599;SDS011;61877;48.246;9.220;2023-08-01T05:11:47;8.33;;;3.30;;
73599;SDS011;61877;48.246;9.220;2023-08-01T05:14:13;9.03;;;2.97;;
73599;SDS011;61877;48.246;9.220;2023-08-01T05:16:38;9.27;;;3.20;;
73599;SDS011;61877;48.246;9.220;2023-08-01T05:19:05;8.70;;;3.00;;
73599;SDS011;61877;48.246;9.220;2023-08-01T05:21:30;7.47;;;2.70;;
73599;SDS011;61877;48.246;9.220;2023-08-01T05:23:56;8.10;;;2.90;;
73599;SDS011;61877;48.246;9.220;2023-08-01T05:26:21;9.17;;;3.20;;
73599;SDS011;61877;48.246;9.220;2023-08-01T05:28:47;7.97;;;3.10;;
73599;SDS011;61877;48.246;9.220;2023-08-01T05:31:12;7.80;;;3.00;;
73599;SDS011;61877;48.246;9.220;2023-08-01T05:33:37;7.50;;;2.67;;
73599;SDS011;61877;48.246;9.220;2023-08-01T05:36:04;7.20;;;2.80;;
73599;SDS011;61877;48.246;9.220;2023-08-01T05:38:30;7.97;;;2.90;;
73599;SDS011;61877;48.246;9.220;2023-08-01T05:40:55;8.82;;;2.80;;
73599;SDS011;61877;48.246;9.220;2023-08-01T05:43:20;8.13;;;2.80;;
73599;SDS011;61877;48.246;9.220;2023-08-01T05:45:46;7.20;;;2.70;;
73599;SDS011;61877;48.246;9.220;2023-08-01T05:48:11;9.27;;;2.90;;
73599;SDS011;61877;48.246;9.220;2023-08-01T05:50:37;7.57;;;2.90;;
73599;SDS011;61877;48.246;9.220;2023-08-01T05:53:03;7.93;;;2.90;;
73599;SDS011;61877;48.246;9.220;2023-08-01T05:55:29;7.63;;;2.63;;
73599;SDS011;61877;48.246;9.220;2023-08-01T05:57:54;9.00;;;3.35;;
73599;SDS011;61877;48.246;9.220;2023-08-01T06:00:20;8.20;;;2.90;;
73599;SDS011;61877;48.246;9.220;2023-08-01T06:02:45;8.30;;;3.13;;
73599;SDS011;61877;48.246;9.220;2023-08-01T06:05:11;9.65;;;3.40;;
73599;SDS011;61877;48.246;9.220;2023-08-01T06:07:36;8.60;;;3.20;;
73599;SDS011;61877;48.246;9.220;2023-08-01T06:10:03;9.50;;;3.50;;
73599;SDS011;61877;48.246;9.220;2023-08-01T06:12:29;8.20;;;3.30;;
73599;SDS011;61877;48.246;9.220;2023-08-01T06:14:55;10.43;;;3.20;;
73599;SDS011;61877;48.246;9.220;2023-08-01T06:17:20;8.93;;;3.47;;
73599;SDS011;61877;48.246;9.220;2023-08-01T06:19:45;7.93;;;3.10;;
73599;SDS011;61877;48.246;9.220;2023-08-01T06:22:11;8.27;;;3.33;;
73599;SDS011;61877;48.246;9.220;2023-08-01T06:24:36;8.53;;;3.40;;
73599;SDS011;61877;48.246;9.220;2023-08-01T06:27:03;9.03;;;3.47;;
73599;SDS011;61877;48.246;9.220;2023-08-01T06:29:29;8.45;;;3.30;;
73599;SDS011;61877;48.246;9.220;2023-08-01T06:31:55;7.63;;;2.90;;
73599;SDS011;61877;48.246;9.220;2023-08-01T06:34:20;8.18;;;3.10;;
73599;SDS011;61877;48.246;9.220;2023-08-01T06:36:45;7.50;;;2.70;;
73599;SDS011;61877;48.246;9.220;2023-08-01T06:39:11;7.73;;;3.27;;
73599;SDS011;61877;48.246;9.220;2023-08-01T06:41:36;18.20;;;3.20;;
73599;SDS011;61877;48.246;9.220;2023-08-01T06:44:03;11.10;;;2.90;;
73599;SDS011;61877;48.246;9.220;2023-08-01T06:46:28;7.83;;;2.90;;
73599;SDS011;61877;48.246;9.220;2023-08-01T06:48:54;7.97;;;2.80;;
73599;SDS011;61877;48.246;9.220;2023-08-01T06:51:19;8.07;;;3.00;;
73599;SDS011;61877;48.246;9.220;2023-08-01T06:53:45;8.33;;;3.00;;
73599;SDS011;61877;48.246;9.220;2023-08-01T06:56:10;7.90;;;2.77;;
73599;SDS011;61877;48.246;9.220;2023-08-01T06:58:35;8.30;;;2.93;;
73599;SDS011;61877;48.246;9.220;2023-08-01T07:01:02;7.13;;;2.70;;
73599;SDS011;61877;48.246;9.220;2023-08-01T07:03:27;7.97;;;3.27;;
73599;SDS011;61877;48.246;9.220;2023-08-01T07:05:53;8.65;;;3.30;;
73599;SDS011;61877;48.246;9.220;2023-08-01T07:08:18;8.20;;;3.00;;
73599;SDS011;61877;48.246;9.220;2023-08-01T07:10:46;7.73;;;3.10;;
73599;SDS011;61877;48.246;9.220;2023-08-01T07:13:14;8.52;;;3.40;;
73599;SDS011;61877;48.246;9.220;2023-08-01T07:15:40;8.32;;;3.50;;
73599;SDS011;61877;48.246;9.220;2023-08-01T07:18:07;7.97;;;3.20;;
73599;SDS011;61877;48.246;9.220;2023-08-01T07:20:35;8.57;;;3.20;;
73599;SDS011;61877;48.246;9.220;2023-08-01T07:23:00;8.63;;;3.10;;
73599;SDS011;61877;48.246;9.220;2023-08-01T07:25:28;7.90;;;3.00;;
73599;SDS011;61877;48.246;9.220;2023-08-01T07:27:53;9.32;;;3.20;;
73599;SDS011;61877;48.246;9.220;2023-08-01T07:30:19;8.67;;;3.60;;
73599;SDS011;61877;48.246;9.220;2023-08-01T07:32:50;9.27;;;3.47;;
73599;SDS011;61877;48.246;9.220;2023-08-01T07:35:17;8.80;;;3.30;;
73599;SDS011;61877;48.246;9.220;2023-08-01T07:37:42;9.02;;;3.75;;
73599;SDS011;61877;48.246;9.220;2023-08-01T07:40:08;9.30;;;3.40;;
73599;SDS011;61877;48.246;9.220;2023-08-01T07:42:37;8.73;;;3.30;;
73599;SDS011;61877;48.246;9.220;2023-08-01T07:45:02;9.20;;;3.47;;
73599;SDS011;61877;48.246;9.220;2023-08-01T07:47:28;9.93;;;3.50;;
73599;SDS011;61877;48.246;9.220;2023-08-01T07:49:56;8.70;;;3.47;;
73599;SDS011;61877;48.246;9.220;2023-08-01T07:52:23;9.43;;;3.55;;
73599;SDS011;61877;48.246;9.220;2023-08-01T07:54:48;9.50;;;3.53;;
73599;SDS011;61877;48.246;9.220;2023-08-01T07:57:14;8.77;;;3.20;;
73599;SDS011;61877;48.246;9.220;2023-08-01T07:59:39;10.47;;;3.23;;
73599;SDS011;61877;48.246;9.220;2023-08-01T08:02:05;7.90;;;3.00;;
73599;SDS011;61877;48.246;9.220;2023-08-01T08:04:30;8.07;;;2.80;;
73599;SDS011;61877;48.246;9.220;2023-08-01T08:06:56;7.70;;;3.00;;
73599;SDS011;61877;48.246;9.220;2023-08-01T08:09:22;8.37;;;2.90;;
73599;SDS011;61877;48.246;9.220;2023-08-01T08:11:48;7.40;;;2.88;;
73599;SDS011;61877;48.246;9.220;2023-08-01T08:14:13;7.87;;;2.93;;
73599;SDS011;61877;48.246;9.220;2023-08-01T08:16:41;7.77;;;2.60;;
73599;SDS011;61877;48.246;9.220;2023-08-01T08:19:12;7.70;;;2.70;;
73599;SDS011;61877;48.246;9.220;2023-08-01T08:21:37;7.53;;;2.73;;
73599;SDS011;61877;48.246;9.220;2023-08-01T08:24:03;7.97;;;3.17;;
73599;SDS011;61877;48.246;9.220;2023-08-01T08:26:32;7.43;;;3.03;;
73599;SDS011;61877;48.246;9.220;2023-08-01T08:28:57;7.78;;;2.97;;
73599;SDS011;61877;48.246;9.220;2023-08-01T08:31:23;8.00;;;3.07;;
73599;SDS011;61877;48.246;9.220;2023-08-01T08:33:48;7.78;;;3.33;;
73599;SDS011;61877;48.246;9.220;2023-08-01T08:36:16;7.43;;;2.90;;
73599;SDS011;61877;48.246;9.220;2023-08-01T08:38:41;7.43;;;2.80;;
73599;SDS011;61877;48.246;9.220;2023-08-01T08:41:08;8.30;;;2.80;;
73599;SDS011;61877;48.246;9.220;2023-08-01T08:43:39;8.25;;;2.80;;
73599;SDS011;61877;48.246;9.220;2023-08-01T08:46:06;8.83;;;3.10;;
73599;SDS011;61877;48.246;9.220;2023-08-01T08:48:34;8.70;;;3.50;;
73599;SDS011;61877;48.246;9.220;2023-08-01T08:51:01;8.35;;;3.10;;
73599;SDS011;61877;48.246;9.220;2023-08-01T08:53:27;7.68;;;3.20;;
73599;SDS011;61877;48.246;9.220;2023-08-01T08:55:53;8.53;;;3.00;;
73599;SDS011;61877;48.246;9.220;2023-08-01T08:58:18;8.57;;;3.20;;
73599;SDS011;61877;48.246;9.220;2023-08-01T09:00:47;8.57;;;2.92;;
73599;SDS011;61877;48.246;9.220;2023-08-01T09:03:13;7.70;;;2.97;;
73599;SDS011;61877;48.246;9.220;2023-08-01T09:05:40;8.00;;;3.20;;
73599;SDS011;61877;48.246;9.220;2023-08-01T09:08:15;11.20;;;2.95;;
73599;SDS011;61877;48.246;9.220;2023-08-01T09:10:41;8.05;;;3.15;;
73599;SDS011;61877;48.246;9.220;2023-08-01T09:13:07;7.97;;;3.07;;
73599;SDS011;61877;48.246;9.220;2023-08-01T09:15:32;8.27;;;3.20;;
73599;SDS011;61877;48.246;9.220;2023-08-01T09:18:00;8.80;;;3.25;;
73599;SDS011;61877;48.246;9.220;2023-08-01T09:20:36;8.03;;;2.70;;
73599;SDS011;61877;48.246;9.220;2023-08-01T09:23:07;8.75;;;3.35;;
73599;SDS011;61877;48.246;9.220;2023-08-01T09:25:34;9.32;;;3.17;;
73599;SDS011;61877;48.246;9.220;2023-08-01T09:28:00;7.68;;;3.03;;
73599;SDS011;61877;48.246;9.220;2023-08-01T09:30:25;8.07;;;2.87;;
73599;SDS011;61877;48.246;9.220;2023-08-01T09:32:51;8.95;;;3.10;;
73599;SDS011;61877;48.246;9.220;2023-08-01T09:35:18;7.30;;;2.70;;
73599;SDS011;61877;48.246;9.220;2023-08-01T09:37:44;8.00;;;3.00;;
73599;SDS011;61877;48.246;9.220;2023-08-01T09:40:09;7.77;;;2.90;;
73599;SDS011;61877;48.246;9.220;2023-08-01T09:42:38;7.63;;;2.90;;
73599;SDS011;61877;48.246;9.220;2023-08-01T09:45:06;7.45;;;2.80;;
73599;SDS011;61877;48.246;9.220;2023-08-01T09:47:36;8.32;;;2.72;;
73599;SDS011;61877;48.246;9.220;2023-08-01T09:50:01;7.07;;;2.63;;
73599;SDS011;61877;48.246;9.220;2023-08-01T09:52:29;7.53;;;2.60;;
73599;SDS011;61877;48.246;9.220;2023-08-01T09:54:54;7.97;;;3.00;;
73599;SDS011;61877;48.246;9.220;2023-08-01T09:57:20;7.63;;;2.90;;
73599;SDS011;61877;48.246;9.220;2023-08-01T09:59:47;7.03;;;2.35;;
73599;SDS011;61877;48.246;9.220;2023-08-01T10:02:14;6.93;;;2.63;;
73599;SDS011;61877;48.246;9.220;2023-08-01T10:04:40;7.53;;;2.50;;
73599;SDS011;61877;48.246;9.220;2023-08-01T10:07:08;8.43;;;2.80;;
73599;SDS011;61877;48.246;9.220;2023-08-01T10:09:37;7.93;;;2.63;;
73599;SDS011;61877;48.246;9.220;2023-08-01T10:12:04;6.47;;;2.30;;
73599;SDS011;61877;48.246;9.220;2023-08-01T10:14:31;7.15;;;2.50;;
73599;SDS011;61877;48.246;9.220;2023-08-01T10:16:57;6.93;;;2.20;;
73599;SDS011;61877;48.246;9.220;2023-08-01T10:19:23;6.72;;;2.30;;
73599;SDS011;61877;48.246;9.220;2023-08-01T10:21:49;6.85;;;2.38;;
73599;SDS011;61877;48.246;9.220;2023-08-01T10:24:15;6.90;;;2.35;;
73599;SDS011;61877;48.246;9.220;2023-08-01T10:26:45;6.78;;;2.30;;
73599;SDS011;61877;48.246;9.220;2023-08-01T10:29:11;7.53;;;2.30;;
73599;SDS011;61877;48.246;9.220;2023-08-01T10:31:36;6.65;;;2.00;;
73599;SDS011;61877;48.246;9.220;2023-08-01T10:34:05;6.67;;;2.40;;
73599;SDS011;61877;48.246;9.220;2023-08-01T10:36:31;6.38;;;1.92;;
73599;SDS011;61877;48.246;9.220;2023-08-01T10:38:57;5.80;;;1.97;;
73599;SDS011;61877;48.246;9.220;2023-08-01T10:41:26;6.40;;;1.85;;
73599;SDS011;61877;48.246;9.220;2023-08-01T10:43:54;5.40;;;1.60;;
73599;SDS011;61877;48.246;9.220;2023-08-01T10:46:29;5.60;;;1.60;;
73599;SDS011;61877;48.246;9.220;2023-08-01T10:49:09;5.43;;;1.27;;
73599;SDS011;61877;48.246;9.220;2023-08-01T10:51:36;5.67;;;1.67;;
73599;SDS011;61877;48.246;9.220;2023-08-01T10:54:01;5.50;;;1.58;;
73599;SDS011;61877;48.246;9.220;2023-08-01T10:56:26;5.67;;;1.73;;
73599;SDS011;61877;48.246;9.220;2023-08-01T10:58:54;7.18;;;1.48;;
73599;SDS011;61877;48.246;9.220;2023-08-01T11:01:20;7.25;;;2.00;;
73599;SDS011;61877;48.246;9.220;2023-08-01T11:03:45;6.40;;;1.60;;
73599;SDS011;61877;48.246;9.220;2023-08-01T11:06:11;5.53;;;1.63;;
73599;SDS011;61877;48.246;9.220;2023-08-01T11:08:37;5.60;;;1.77;;
73599;SDS011;61877;48.246;9.220;2023-08-01T11:11:04;6.20;;;1.50;;
73599;SDS011;61877;48.246;9.220;2023-08-01T11:13:30;5.80;;;1.70;;
73599;SDS011;61877;48.246;9.220;2023-08-01T11:15:57;6.10;;;1.70;;
73599;SDS011;61877;48.246;9.220;2023-08-01T11:18:22;5.70;;;1.75;;
73599;SDS011;61877;48.246;9.220;2023-08-01T11:20:48;5.87;;;1.73;;
73599;SDS011;61877;48.246;9.220;2023-08-01T11:23:13;6.18;;;1.90;;
73599;SDS011;61877;48.246;9.220;2023-08-01T11:25:39;5.40;;;1.30;;
73599;SDS011;61877;48.246;9.220;2023-08-01T11:28:06;6.25;;;1.50;;
73599;SDS011;61877;48.246;9.220;2023-08-01T11:30:33;5.93;;;1.10;;
73599;SDS011;61877;48.246;9.220;2023-08-01T11:33:00;4.82;;;1.20;;
73599;SDS011;61877;48.246;9.220;2023-08-01T11:35:26;5.25;;;1.33;;
73599;SDS011;61877;48.246;9.220;2023-08-01T11:37:51;4.90;;;1.30;;
73599;SDS011;61877;48.246;9.220;2023-08-01T11:40:17;4.53;;;1.10;;
73599;SDS011;61877;48.246;9.220;2023-08-01T11:42:47;4.80;;;1.33;;
73599;SDS011;61877;48.246;9.220;2023-08-01T11:45:14;4.55;;;1.08;;
73599;SDS011;61877;48.246;9.220;2023-08-01T11:47:44;4.85;;;1.27;;
73599;SDS011;61877;48.246;9.220;2023-08-01T11:50:14;4.78;;;1.00;;
73599;SDS011;61877;48.246;9.220;2023-08-01T11:52:46;4.43;;;0.95;;
73599;SDS011;61877;48.246;9.220;2023-08-01T11:55:17;4.40;;;1.10;;
73599;SDS011;61877;48.246;9.220;2023-08-01T11:57:50;6.65;;;1.13;;
73599;SDS011;61877;48.246;9.220;2023-08-01T12:00:20;5.13;;;1.10;;
73599;SDS011;61877;48.246;9.220;2023-08-01T12:02:47;5.22;;;1.30;;
73599;SDS011;61877;48.246;9.220;2023-08-01T12:05:20;4.93;;;1.10;;
73599;SDS011;61877;48.246;9.220;2023-08-01T12:07:49;6.85;;;1.17;;
73599;SDS011;61877;48.246;9.220;2023-08-01T12:10:17;4.83;;;1.30;;
73599;SDS011;61877;48.246;9.220;2023-08-01T12:12:43;4.78;;;1.40;;
73599;SDS011;61877;48.246;9.220;2023-08-01T12:15:10;5.40;;;1.30;;
73599;SDS011;61877;48.246;9.220;2023-08-01T12:17:35;5.00;;;1.40;;
73599;SDS011;61877;48.246;9.220;2023-08-01T12:20:03;5.10;;;1.40;;
73599;SDS011;61877;48.246;9.220;2023-08-01T12:22:30;5.40;;;1.40;;
73599;SDS011;61877;48.246;9.220;2023-08-01T12:25:06;5.03;;;1.10;;
73599;SDS011;61877;48.246;9.220;2023-08-01T12:27:32;5.10;;;1.07;;
73599;SDS011;61877;48.246;9.220;2023-08-01T12:29:57;5.00;;;1.30;;
73599;SDS011;61877;48.246;9.220;2023-08-01T12:32:32;4.80;;;1.20;;
73599;SDS011;61877;48.246;9.220;2023-08-01T12:35:09;4.40;;;1.05;;
73599;SDS011;61877;48.246;9.220;2023-08-01T12:37:39;5.25;;;1.30;;
73599;SDS011;61877;48.246;9.220;2023-08-01T12:40:16;4.78;;;1.30;;
73599;SDS011;61877;48.246;9.220;2023-08-01T12:42:55;4.53;;;1.10;;
73599;SDS011;61877;48.246;9.220;2023-08-01T12:45:28;5.33;;;1.40;;
73599;SDS011;61877;48.246;9.220;2023-08-01T12:48:03;5.60;;;1.40;;
73599;SDS011;61877;48.246;9.220;2023-08-01T12:51:09;5.22;;;1.10;;
73599;SDS011;61877;48.246;9.220;2023-08-01T12:56:38;5.22;;;1.10;;
73599;SDS011;61877;48.246;9.220;2023-08-01T12:59:03;5.20;;;1.20;;
73599;SDS011;61877;48.246;9.220;2023-08-01T13:01:32;4.80;;;1.20;;
73599;SDS011;61877;48.246;9.220;2023-08-01T13:04:18;6.97;;;1.30;;
73599;SDS011;61877;48.246;9.220;2023-08-01T13:07:06;4.90;;;1.15;;
73599;SDS011;61877;48.246;9.220;2023-08-01T13:10:09;5.60;;;1.20;;
73599;SDS011;61877;48.246;9.220;2023-08-01T13:12:49;4.63;;;1.20;;
73599;SDS011;61877;48.246;9.220;2023-08-01T13:15:23;5.47;;;1.30;;
73599;SDS011;61877;48.246;9.220;2023-08-01T13:17:57;4.45;;;1.10;;
73599;SDS011;61877;48.246;9.220;2023-08-01T13:20:23;4.82;;;1.20;;
73599;SDS011;61877;48.246;9.220;2023-08-01T13:22:52;4.93;;;1.50;;
73599;SDS011;61877;48.246;9.220;2023-08-01T13:25:20;6.43;;;1.35;;
73599;SDS011;61877;48.246;9.220;2023-08-01T13:28:17;4.57;;;1.00;;
73599;SDS011;61877;48.246;9.220;2023-08-01T13:31:14;5.00;;;1.10;;
73599;SDS011;61877;48.246;9.220;2023-08-01T13:33:47;4.50;;;1.20;;
73599;SDS011;61877;48.246;9.220;2023-08-01T13:36:13;4.80;;;1.10;;
73599;SDS011;61877;48.246;9.220;2023-08-01T13:38:41;6.97;;;1.17;;
73599;SDS011;61877;48.246;9.220;2023-08-01T13:41:10;4.68;;;1.20;;
73599;SDS011;61877;48.246;9.220;2023-08-01T13:43:40;4.50;;;1.10;;
73599;SDS011;61877;48.246;9.220;2023-08-01T13:46:17;4.72;;;1.20;;
73599;SDS011;61877;48.246;9.220;2023-08-01T13:48:46;5.25;;;1.67;;
73599;SDS011;61877;48.246;9.220;2023-08-01T13:51:17;6.55;;;1.10;;
73599;SDS011;61877;48.246;9.220;2023-08-01T13:53:52;4.50;;;1.10;;
73599;SDS011;61877;48.246;9.220;2023-08-01T13:56:24;4.60;;;1.10;;
73599;SDS011;61877;48.246;9.220;2023-08-01T13:58:54;4.55;;;1.10;;
73599;SDS011;61877;48.246;9.220;2023-08-01T14:01:20;5.20;;;1.58;;
73599;SDS011;61877;48.246;9.220;2023-08-01T14:06:29;4.53;;;1.10;;
73599;SDS011;61877;48.246;9.220;2023-08-01T14:11:49;5.05;;;1.20;;
73599;SDS011;61877;48.246;9.220;2023-08-01T14:17:32;4.50;;;1.17;;
73599;SDS011;61877;48.246;9.220;2023-08-01T14:20:04;4.50;;;1.20;;
73599;SDS011;61877;48.246;9.220;2023-08-01T14:25:22;4.70;;;1.17;;
73599;SDS011;61877;48.246;9.220;2023-08-01T14:40:13;9.77;;;1.53;;
73599;SDS011;61877;48.246;9.220;2023-08-01T14:45:36;7.47;;;1.67;;
73599;SDS011;61877;48.246;9.220;2023-08-01T14:48:08;5.38;;;1.55;;
73599;SDS011;61877;48.246;9.220;2023-08-01T14:50:58;5.15;;;1.58;;
73599;SDS011;61877;48.246;9.220;2023-08-01T14:53:44;6.70;;;1.67;;
73599;SDS011;61877;48.246;9.220;2023-08-01T14:59:36;6.07;;;1.50;;
73599;SDS011;61877;48.246;9.220;2023-08-01T15:08:23;4.80;;;1.20;;
73599;SDS011;61877;48.246;9.220;2023-08-01T15:10:53;4.88;;;1.20;;
73599;SDS011;61877;48.246;9.220;2023-08-01T15:15:45;5.20;;;1.40;;
73599;SDS011;61877;48.246;9.220;2023-08-01T15:18:12;4.55;;;1.17;;
73599;SDS011;61877;48.246;9.220;2023-08-01T15:20:37;4.90;;;1.40;;
73599;SDS011;61877;48.246;9.220;2023-08-01T15:23:06;4.72;;;1.25;;
73599;SDS011;61877;48.246;9.220;2023-08-01T15:25:34;5.00;;;1.30;;
73599;SDS011;61877;48.246;9.220;2023-08-01T15:28:00;4.70;;;1.20;;
73599;SDS011;61877;48.246;9.220;2023-08-01T15:30:27;5.18;;;1.30;;